Time;durP1;ratioP1;P1;durP2;ratioP2;P2;SDS_P1;SDS_P2;PMS_P1;PMS_P2;Temp;Humidity;BMP_temperature;BMP_pressure;BME280_temperature;BME280_humidity;BME280_pressure;Samples;Min_cycle;Max_cycle;Signal;HPM_P1;HPM_P2
2022/07/30 00:00:22;;;;;;;5.15;2.90;;;15.90;94.40;;;;;;5114683;28;20016;-68
2022/07/30 00:02:50;;;;;;;5.20;3.60;;;15.90;94.10;;;;;;5114567;28;20027;-68
2022/07/30 00:05:16;;;;;;;5.47;3.22;;;15.80;94.70;;;;;;5108841;28;20056;-67
2022/07/30 00:07:42;;;;;;;9.40;3.30;;;15.80;94.10;;;;;;5109019;28;20148;-68
2022/07/30 00:10:08;;;;;;;6.85;2.97;;;15.90;92.80;;;;;;5113324;28;20042;-68
2022/07/30 00:12:33;;;;;;;8.25;3.10;;;16.00;92.10;;;;;;5111738;28;20299;-68
2022/07/30 00:14:59;;;;;;;6.97;3.10;;;16.40;90.60;;;;;;5112954;28;20032;-68
2022/07/30 00:17:25;;;;;;;5.88;2.90;;;16.60;90.10;;;;;;5106325;28;20302;-67
2022/07/30 00:19:50;;;;;;;6.05;2.88;;;16.80;89.60;;;;;;5109155;28;20024;-67
2022/07/30 00:22:16;;;;;;;5.50;3.20;;;16.80;89.40;;;;;;5106879;28;20015;-66
2022/07/30 00:24:41;;;;;;;10.75;3.15;;;16.90;89.80;;;;;;5112120;28;20424;-68
2022/07/30 00:27:07;;;;;;;5.85;2.75;;;16.90;89.60;;;;;;5109878;28;20077;-67
2022/07/30 00:29:33;;;;;;;7.75;3.20;;;17.00;89.20;;;;;;5110087;28;20067;-67
2022/07/30 00:31:58;;;;;;;9.15;3.70;;;17.00;89.40;;;;;;5110111;28;20035;-66
2022/07/30 00:34:24;;;;;;;6.35;3.38;;;17.00;90.00;;;;;;5111841;27;20028;-65
2022/07/30 00:36:50;;;;;;;5.88;3.40;;;17.00;90.30;;;;;;5110567;28;20028;-66
2022/07/30 00:39:19;;;;;;;8.10;3.38;;;17.00;90.80;;;;;;5107857;28;20028;-67
2022/07/30 00:41:59;;;;;;;6.68;3.20;;;17.00;90.60;;;;;;5115150;28;20024;-67
2022/07/30 00:44:25;;;;;;;22.17;4.70;;;16.90;91.00;;;;;;5109336;28;20032;-67
2022/07/30 00:46:51;;;;;;;65.13;5.63;;;17.00;90.90;;;;;;5108968;28;21180;-67
2022/07/30 00:49:19;;;;;;;7.85;3.75;;;17.00;90.90;;;;;;5112961;28;20050;-66
2022/07/30 00:51:46;;;;;;;6.63;3.03;;;17.00;91.20;;;;;;5110679;28;20101;-67
2022/07/30 00:54:14;;;;;;;6.10;3.55;;;17.00;91.30;;;;;;5108908;28;20081;-66
2022/07/30 00:56:39;;;;;;;8.48;3.70;;;17.00;91.70;;;;;;5110343;28;20088;-67
2022/07/30 00:59:05;;;;;;;6.57;3.58;;;16.90;92.00;;;;;;5110543;28;20043;-68
2022/07/30 01:01:32;;;;;;;7.47;3.67;;;16.90;92.00;;;;;;5110501;28;20031;-67
2022/07/30 01:03:58;;;;;;;5.90;3.47;;;17.00;91.90;;;;;;5106481;28;20561;-67
2022/07/30 01:06:24;;;;;;;8.82;3.80;;;17.00;91.70;;;;;;5106804;28;20432;-67
2022/07/30 01:08:49;;;;;;;9.60;3.70;;;17.00;91.70;;;;;;5108261;28;20027;-66
2022/07/30 01:11:16;;;;;;;7.40;3.50;;;17.00;92.20;;;;;;5109003;28;20103;-67
2022/07/30 01:13:45;;;;;;;9.15;3.40;;;17.00;92.80;;;;;;5109636;28;20314;-67
2022/07/30 01:16:10;;;;;;;10.20;3.92;;;17.00;92.00;;;;;;5111365;28;20034;-66
2022/07/30 01:21:37;;;;;;;6.38;3.40;;;17.00;91.90;;;;;;5109582;28;20076;-68
2022/07/30 01:24:27;;;;;;;7.35;3.58;;;17.00;91.80;;;;;;5110102;28;20131;-67
2022/07/30 01:26:54;;;;;;;6.60;3.63;;;16.90;92.20;;;;;;5111886;28;20110;-67
2022/07/30 01:29:22;;;;;;;6.93;3.47;;;16.90;92.70;;;;;;5113176;28;20043;-67
2022/07/30 01:31:49;;;;;;;5.57;3.60;;;16.70;94.10;;;;;;5113133;28;20092;-67
2022/07/30 01:34:16;;;;;;;10.32;3.78;;;16.40;94.60;;;;;;5113943;28;20028;-67
2022/07/30 01:36:45;;;;;;;5.30;3.33;;;16.30;94.60;;;;;;5114326;28;20054;-68
2022/07/30 01:39:12;;;;;;;6.25;3.92;;;16.10;95.50;;;;;;5113614;28;20016;-68
2022/07/30 01:41:39;;;;;;;6.00;4.05;;;16.10;95.40;;;;;;5114425;28;20031;-67
2022/07/30 01:44:11;;;;;;;6.80;3.88;;;16.10;95.20;;;;;;5113253;28;20016;-67
2022/07/30 01:46:37;;;;;;;7.45;4.07;;;16.00;95.50;;;;;;5109845;28;20031;-67
2022/07/30 01:49:04;;;;;;;9.85;3.97;;;15.90;96.00;;;;;;5111044;28;20054;-66
2022/07/30 01:51:31;;;;;;;7.00;4.50;;;15.60;96.70;;;;;;5113563;28;20065;-67
2022/07/30 01:53:59;;;;;;;8.82;4.63;;;15.40;97.00;;;;;;5110920;28;20089;-67
2022/07/30 01:56:27;;;;;;;9.73;4.72;;;15.40;97.00;;;;;;5110422;28;20023;-67
2022/07/30 01:58:55;;;;;;;7.82;5.00;;;15.40;97.20;;;;;;5114535;28;20019;-67
2022/07/30 02:01:22;;;;;;;6.43;4.40;;;15.20;96.80;;;;;;5111822;28;20020;-67
2022/07/30 02:03:48;;;;;;;6.65;4.60;;;15.00;96.90;;;;;;5109372;28;20424;-66
2022/07/30 02:06:21;;;;;;;9.38;4.50;;;14.90;96.80;;;;;;5110058;28;20092;-67
2022/07/30 02:09:00;;;;;;;7.72;4.45;;;14.80;96.90;;;;;;5109561;28;20424;-67
2022/07/30 02:14:18;;;;;;;7.60;5.35;;;14.70;96.70;;;;;;5112543;28;20443;-67
2022/07/30 02:16:46;;;;;;;8.13;5.55;;;14.70;96.70;;;;;;5113864;28;20034;-67
2022/07/30 02:19:15;;;;;;;9.25;5.13;;;14.60;96.40;;;;;;5111506;28;20019;-67
2022/07/30 02:21:47;;;;;;;7.65;5.50;;;14.50;96.20;;;;;;5116154;28;20024;-67
2022/07/30 02:24:18;;;;;;;8.73;5.50;;;14.30;95.80;;;;;;5100116;28;20030;-67
2022/07/30 02:26:50;;;;;;;7.65;6.32;;;14.20;95.00;;;;;;5110716;28;20031;-67
2022/07/30 02:29:18;;;;;;;9.43;6.18;;;14.00;94.30;;;;;;5110983;28;20039;-67
2022/07/30 02:31:44;;;;;;;12.07;6.63;;;13.90;93.70;;;;;;5104172;28;20039;-67
2022/07/30 02:34:12;;;;;;;10.57;6.05;;;13.90;93.40;;;;;;5111937;28;20027;-68
2022/07/30 02:36:40;;;;;;;11.35;6.45;;;13.80;92.80;;;;;;5110484;28;20028;-67
2022/07/30 02:39:08;;;;;;;11.32;6.90;;;13.80;92.60;;;;;;5110423;28;20443;-67
2022/07/30 02:41:37;;;;;;;11.82;6.60;;;13.80;92.80;;;;;;5113259;28;20035;-67
2022/07/30 02:44:04;;;;;;;8.77;6.13;;;13.80;92.50;;;;;;5111585;28;20035;-66
2022/07/30 02:46:33;;;;;;;10.68;7.45;;;13.80;92.50;;;;;;5109164;28;20092;-66
2022/07/30 02:48:59;;;;;;;12.15;7.40;;;13.80;92.60;;;;;;5106141;28;20031;-66
2022/07/30 02:51:30;;;;;;;8.98;7.10;;;13.70;92.00;;;;;;5109296;28;20157;-66
2022/07/30 02:53:59;;;;;;;9.73;7.50;;;13.60;91.90;;;;;;5109232;28;20035;-66
2022/07/30 02:56:26;;;;;;;10.98;7.28;;;13.50;91.50;;;;;;5109970;28;20234;-68
2022/07/30 02:58:52;;;;;;;9.48;6.90;;;13.40;91.30;;;;;;5111445;28;20408;-68
2022/07/30 03:01:21;;;;;;;11.90;7.80;;;13.40;91.20;;;;;;5111011;28;20024;-67
2022/07/30 03:03:48;;;;;;;13.88;8.20;;;13.30;90.60;;;;;;5102111;28;20172;-67
2022/07/30 03:06:14;;;;;;;11.95;7.30;;;13.30;90.20;;;;;;5110713;28;20111;-68
2022/07/30 03:08:44;;;;;;;12.40;7.88;;;13.20;90.60;;;;;;5106719;28;20105;-69
2022/07/30 03:11:12;;;;;;;12.75;8.52;;;13.20;89.00;;;;;;5110290;28;20019;-69
2022/07/30 03:13:38;;;;;;;11.88;8.02;;;13.10;89.40;;;;;;5103465;28;20312;-67
2022/07/30 03:16:07;;;;;;;11.05;8.40;;;13.10;88.90;;;;;;5110430;28;20034;-67
2022/07/30 03:18:35;;;;;;;12.98;8.55;;;13.20;88.40;;;;;;5112993;28;20023;-67
2022/07/30 03:21:02;;;;;;;9.82;8.07;;;13.20;88.20;;;;;;5110391;28;20064;-67
2022/07/30 03:23:30;;;;;;;12.60;8.65;;;13.10;89.00;;;;;;5110732;28;20111;-68
2022/07/30 03:26:00;;;;;;;12.05;8.77;;;13.10;88.20;;;;;;5107126;28;20098;-68
2022/07/30 03:28:28;;;;;;;14.32;8.73;;;13.00;88.60;;;;;;5107305;28;20461;-67
2022/07/30 03:30:54;;;;;;;12.45;8.07;;;13.00;87.60;;;;;;5104909;28;20028;-68
2022/07/30 03:33:20;;;;;;;12.40;8.75;;;13.00;87.60;;;;;;5103333;28;20023;-68
2022/07/30 03:35:48;;;;;;;11.00;8.02;;;13.00;87.50;;;;;;5109910;28;20355;-68
2022/07/30 03:38:14;;;;;;;15.00;9.82;;;12.90;87.70;;;;;;5111085;28;20019;-68
2022/07/30 03:40:49;;;;;;;10.88;8.63;;;12.90;87.80;;;;;;5105663;28;20613;-68
2022/07/30 03:43:15;;;;;;;13.75;10.07;;;12.80;87.50;;;;;;5107577;28;20107;-68
2022/07/30 03:45:43;;;;;;;10.10;8.25;;;12.80;86.70;;;;;;5102302;28;20435;-66
2022/07/30 03:48:11;;;;;;;15.70;9.90;;;12.80;86.60;;;;;;5105128;28;20024;-66
2022/07/30 03:50:41;;;;;;;11.48;9.68;;;12.80;86.70;;;;;;5107761;28;20035;-68
2022/07/30 03:53:10;;;;;;;11.95;8.82;;;12.80;86.70;;;;;;5103916;28;20027;-67
2022/07/30 03:55:35;;;;;;;13.93;9.10;;;12.70;86.70;;;;;;5105319;28;20316;-68
2022/07/30 03:58:02;;;;;;;11.18;8.85;;;12.60;86.20;;;;;;5107715;28;20026;-67
2022/07/30 04:00:28;;;;;;;14.57;9.65;;;12.70;86.20;;;;;;5109990;28;20120;-67
2022/07/30 04:02:54;;;;;;;14.15;9.98;;;12.60;86.00;;;;;;5110573;28;20065;-67
2022/07/30 04:05:20;;;;;;;10.05;8.65;;;12.70;85.70;;;;;;5111383;28;20048;-67
2022/07/30 04:07:46;;;;;;;11.68;9.43;;;12.70;85.90;;;;;;5112410;28;20028;-68
2022/07/30 04:10:15;;;;;;;13.20;8.82;;;12.60;85.80;;;;;;5108996;28;20051;-67
2022/07/30 04:12:42;;;;;;;11.60;10.18;;;12.70;85.30;;;;;;5112495;28;20048;-68
2022/07/30 04:15:08;;;;;;;10.63;9.07;;;12.80;85.40;;;;;;5109298;28;20024;-68
2022/07/30 04:17:54;;;;;;;16.02;10.73;;;12.80;85.70;;;;;;5109306;28;20053;-68
2022/07/30 04:20:26;;;;;;;16.92;10.25;;;12.80;86.30;;;;;;5106833;28;20024;-67
2022/07/30 04:22:53;;;;;;;14.25;10.40;;;12.80;85.80;;;;;;5112586;28;20065;-67
2022/07/30 04:25:20;;;;;;;11.68;9.00;;;12.80;86.30;;;;;;5110945;28;20130;-68
2022/07/30 04:27:47;;;;;;;13.32;9.15;;;12.80;86.80;;;;;;5114075;28;20032;-68
2022/07/30 04:30:13;;;;;;;10.40;9.30;;;12.70;87.00;;;;;;5115064;28;20333;-68
2022/07/30 04:32:39;;;;;;;14.85;10.40;;;12.70;86.20;;;;;;5106903;28;20046;-67
2022/07/30 04:35:10;;;;;;;12.65;9.25;;;12.80;86.00;;;;;;5112030;28;20027;-67
2022/07/30 04:37:36;;;;;;;10.68;8.48;;;12.80;86.20;;;;;;5113269;28;20017;-67
2022/07/30 04:40:02;;;;;;;12.93;10.10;;;12.90;86.40;;;;;;5114869;28;20452;-68
2022/07/30 04:42:28;;;;;;;10.52;9.27;;;12.80;87.10;;;;;;5110038;28;20424;-68
2022/07/30 04:44:55;;;;;;;13.13;10.00;;;12.80;87.20;;;;;;5112824;28;20316;-67
2022/07/30 04:47:22;;;;;;;13.02;10.93;;;12.80;87.00;;;;;;5111092;28;20020;-67
2022/07/30 04:49:49;;;;;;;12.77;8.82;;;12.80;87.10;;;;;;5105494;28;20059;-67
2022/07/30 04:52:17;;;;;;;14.27;9.68;;;12.80;87.00;;;;;;5110059;28;20027;-68
2022/07/30 04:54:59;;;;;;;12.45;9.77;;;12.80;86.90;;;;;;5111019;28;20085;-67
2022/07/30 04:57:27;;;;;;;11.93;9.43;;;12.80;86.60;;;;;;5111600;28;20054;-67
2022/07/30 04:59:53;;;;;;;11.15;9.48;;;12.80;86.80;;;;;;5113790;28;20031;-67
2022/07/30 05:02:24;;;;;;;11.20;9.63;;;12.90;86.70;;;;;;5111133;28;20324;-67
2022/07/30 05:04:50;;;;;;;10.90;9.23;;;12.90;86.90;;;;;;5108312;28;20039;-67
2022/07/30 05:07:17;;;;;;;13.60;9.70;;;12.90;86.80;;;;;;5108797;28;20110;-67
2022/07/30 05:09:43;;;;;;;13.60;9.82;;;13.00;86.50;;;;;;5106897;28;20016;-67
2022/07/30 05:12:09;;;;;;;12.90;9.07;;;13.10;86.60;;;;;;5107501;28;20455;-67
2022/07/30 05:14:34;;;;;;;12.63;8.25;;;13.10;86.40;;;;;;5111133;28;20019;-67
2022/07/30 05:17:01;;;;;;;13.15;9.82;;;13.20;86.20;;;;;;5111268;28;20430;-68
2022/07/30 05:19:26;;;;;;;11.82;9.52;;;13.20;86.80;;;;;;5109206;28;20320;-67
2022/07/30 05:21:52;;;;;;;14.23;8.48;;;13.30;86.50;;;;;;5108043;28;20039;-67
2022/07/30 05:24:18;;;;;;;11.13;8.25;;;13.40;86.50;;;;;;5107829;28;20084;-67
2022/07/30 05:26:44;;;;;;;10.43;8.77;;;13.50;86.40;;;;;;5104039;28;20043;-67
2022/07/30 05:29:10;;;;;;;13.68;9.32;;;13.60;86.50;;;;;;5106676;28;20077;-67
2022/07/30 05:31:36;;;;;;;11.07;8.80;;;13.60;86.90;;;;;;5105291;28;20463;-67
2022/07/30 05:34:02;;;;;;;11.40;8.80;;;13.70;87.10;;;;;;5110278;28;20031;-66
2022/07/30 05:36:27;;;;;;;11.57;8.68;;;13.90;87.20;;;;;;5103923;28;20032;-68
2022/07/30 05:38:53;;;;;;;10.30;7.90;;;14.00;87.60;;;;;;5108871;28;20031;-67
2022/07/30 05:41:22;;;;;;;9.75;7.95;;;14.20;87.60;;;;;;5105824;28;20020;-66
2022/07/30 05:43:48;;;;;;;10.38;8.02;;;14.30;88.20;;;;;;5107728;28;20027;-66
2022/07/30 05:46:14;;;;;;;10.68;7.55;;;14.60;89.10;;;;;;5106765;27;20038;-66
2022/07/30 05:48:40;;;;;;;9.98;7.78;;;14.80;91.80;;;;;;5111068;28;20315;-66
2022/07/30 05:51:05;;;;;;;13.55;7.18;;;14.90;93.00;;;;;;5107633;28;20304;-67
2022/07/30 05:53:31;;;;;;;10.50;7.38;;;15.10;94.50;;;;;;5103732;28;20106;-68
2022/07/30 05:55:57;;;;;;;10.00;6.70;;;15.30;95.30;;;;;;5105865;28;20412;-66
2022/07/30 05:58:23;;;;;;;8.80;6.55;;;15.50;97.60;;;;;;5104277;28;20015;-66
2022/07/30 06:00:49;;;;;;;10.80;6.95;;;15.70;98.00;;;;;;5102335;28;20107;-66
2022/07/30 06:03:15;;;;;;;7.88;5.93;;;15.90;98.00;;;;;;5106609;28;20027;-67
2022/07/30 06:05:41;;;;;;;9.25;5.97;;;16.20;98.00;;;;;;5108640;28;20389;-66
2022/07/30 06:08:07;;;;;;;10.80;6.15;;;16.40;97.60;;;;;;5100762;28;20390;-68
2022/07/30 06:10:37;;;;;;;10.07;6.53;;;16.60;96.70;;;;;;5105150;28;20044;-67
2022/07/30 06:13:03;;;;;;;8.60;6.10;;;16.80;96.40;;;;;;5111663;28;20027;-66
2022/07/30 06:15:28;;;;;;;8.55;5.97;;;17.00;95.60;;;;;;5112628;28;20028;-67
2022/07/30 06:17:57;;;;;;;12.30;6.03;;;17.20;94.90;;;;;;5099932;28;20019;-67
2022/07/30 06:20:23;;;;;;;11.23;6.45;;;17.30;94.30;;;;;;5105843;28;20119;-67
2022/07/30 06:22:48;;;;;;;10.95;6.40;;;17.50;93.60;;;;;;5110639;28;20597;-67
2022/07/30 06:25:17;;;;;;;10.13;6.18;;;17.70;92.90;;;;;;5106939;28;20073;-67
2022/07/30 06:27:43;;;;;;;10.52;6.95;;;17.70;92.30;;;;;;5102955;28;20028;-67
2022/07/30 06:30:10;;;;;;;12.07;6.28;;;17.80;92.30;;;;;;5101245;28;20020;-67
2022/07/30 06:32:39;;;;;;;11.88;7.03;;;17.90;92.40;;;;;;5105649;28;20020;-67
2022/07/30 06:35:05;;;;;;;13.27;8.00;;;18.00;91.50;;;;;;5102892;28;20362;-67
2022/07/30 06:37:30;;;;;;;10.40;8.00;;;18.10;90.70;;;;;;5101047;28;20050;-66
2022/07/30 06:39:56;;;;;;;13.43;8.13;;;18.10;90.90;;;;;;5097618;28;20027;-67
2022/07/30 06:42:22;;;;;;;13.65;7.70;;;18.20;90.90;;;;;;5103737;28;20084;-67
2022/07/30 06:44:47;;;;;;;13.95;7.97;;;18.30;90.70;;;;;;5114170;28;20480;-66
2022/07/30 06:47:20;;;;;;;13.95;8.90;;;18.50;90.60;;;;;;5113336;28;20020;-66
2022/07/30 06:49:46;;;;;;;16.75;7.90;;;18.70;89.00;;;;;;5105926;28;20013;-66
2022/07/30 06:52:11;;;;;;;12.82;8.50;;;19.40;87.90;;;;;;5098628;28;20020;-67
2022/07/30 06:54:37;;;;;;;15.65;8.45;;;20.10;85.10;;;;;;5102586;28;20059;-67
2022/07/30 06:57:03;;;;;;;10.80;7.35;;;20.30;83.80;;;;;;5105679;28;20141;-68
2022/07/30 06:59:28;;;;;;;11.95;7.60;;;20.60;82.90;;;;;;5110878;28;20324;-67
2022/07/30 07:01:54;;;;;;;10.98;7.75;;;21.00;82.00;;;;;;5109832;28;20357;-67
2022/07/30 07:04:20;;;;;;;12.00;6.78;;;21.20;80.80;;;;;;5095268;28;20031;-68
2022/07/30 07:06:46;;;;;;;10.32;6.10;;;21.30;81.10;;;;;;5100206;28;20056;-67
2022/07/30 07:09:11;;;;;;;10.57;6.55;;;20.80;81.90;;;;;;5094172;28;20035;-67
2022/07/30 07:11:37;;;;;;;13.13;7.18;;;20.40;82.60;;;;;;5105655;28;20028;-67
2022/07/30 07:14:03;;;;;;;11.52;6.30;;;20.10;83.50;;;;;;5116215;28;20020;-67
2022/07/30 07:16:28;;;;;;;7.22;5.65;;;20.00;84.50;;;;;;5114036;28;20053;-67
2022/07/30 07:18:54;;;;;;;11.55;7.50;;;20.00;84.10;;;;;;5110021;28;20411;-67
2022/07/30 07:21:20;;;;;;;13.10;6.50;;;19.90;83.80;;;;;;5113716;28;20102;-67
2022/07/30 07:23:49;;;;;;;8.18;6.03;;;19.80;84.30;;;;;;5111699;28;20804;-67
2022/07/30 07:26:15;;;;;;;12.00;7.22;;;19.80;84.90;;;;;;5115063;28;20063;-67
2022/07/30 07:28:47;;;;;;;10.63;6.85;;;19.90;84.40;;;;;;5115941;28;20126;-67
2022/07/30 07:31:12;;;;;;;9.50;6.30;;;19.90;84.50;;;;;;5115426;28;20413;-67
2022/07/30 07:33:39;;;;;;;9.25;6.18;;;20.00;84.40;;;;;;5112535;28;20038;-66
2022/07/30 07:36:05;;;;;;;7.95;5.45;;;20.00;84.60;;;;;;5110006;28;20393;-67
2022/07/30 07:38:31;;;;;;;12.63;5.47;;;20.00;83.90;;;;;;5111645;28;20051;-67
2022/07/30 07:40:57;;;;;;;10.35;5.65;;;20.20;82.60;;;;;;5107848;28;20054;-67
2022/07/30 07:43:24;;;;;;;10.05;6.10;;;20.30;81.10;;;;;;5115575;28;20031;-68
2022/07/30 07:45:50;;;;;;;8.32;5.15;;;20.40;81.20;;;;;;5115137;28;20405;-67
2022/07/30 07:48:16;;;;;;;9.93;5.60;;;20.70;81.60;;;;;;5109711;28;20042;-67
2022/07/30 07:50:42;;;;;;;10.80;5.60;;;21.40;80.20;;;;;;5113496;28;20567;-67
2022/07/30 07:53:07;;;;;;;10.75;4.78;;;22.20;77.20;;;;;;5110577;28;20152;-67
2022/07/30 07:55:33;;;;;;;11.02;4.90;;;23.00;75.80;;;;;;5114962;28;20042;-67
2022/07/30 07:57:59;;;;;;;11.52;5.45;;;23.50;73.20;;;;;;5117725;28;20028;-67
2022/07/30 08:00:24;;;;;;;10.02;4.65;;;23.70;72.40;;;;;;5117283;28;20440;-68
2022/07/30 08:02:50;;;;;;;7.30;3.92;;;23.90;72.60;;;;;;5117287;28;20122;-68
2022/07/30 08:05:16;;;;;;;7.35;3.60;;;24.20;70.40;;;;;;5116492;28;20051;-68
2022/07/30 08:07:43;;;;;;;6.85;3.60;;;24.20;66.50;;;;;;5117543;28;20294;-67
2022/07/30 08:10:10;;;;;;;7.68;3.63;;;24.20;66.60;;;;;;5113790;28;20039;-67
2022/07/30 08:12:36;;;;;;;6.78;3.40;;;23.90;67.10;;;;;;5116663;28;20420;-68
2022/07/30 08:15:02;;;;;;;5.38;2.88;;;24.10;67.50;;;;;;5118597;28;20446;-68
2022/07/30 08:17:28;;;;;;;5.45;2.75;;;24.40;67.30;;;;;;5117840;28;20035;-68
2022/07/30 08:19:59;;;;;;;11.10;3.80;;;25.30;65.50;;;;;;5117049;28;20404;-67
2022/07/30 08:22:25;;;;;;;6.18;3.28;;;25.50;64.60;;;;;;5116281;28;20042;-68
2022/07/30 08:24:50;;;;;;;9.77;3.38;;;25.30;63.60;;;;;;5117675;28;20035;-68
2022/07/30 08:27:17;;;;;;;9.10;3.03;;;25.70;62.70;;;;;;5112987;28;20024;-67
2022/07/30 08:29:42;;;;;;;6.68;3.03;;;26.30;61.40;;;;;;5112741;28;20024;-68
2022/07/30 08:32:11;;;;;;;6.88;2.88;;;26.60;60.70;;;;;;5117841;28;20086;-67
2022/07/30 08:34:36;;;;;;;7.25;2.85;;;26.20;61.60;;;;;;5118775;28;20031;-67
2022/07/30 08:37:02;;;;;;;7.68;2.78;;;26.00;62.80;;;;;;5117074;28;20080;-67
2022/07/30 08:39:28;;;;;;;7.95;3.30;;;26.40;62.10;;;;;;5115914;28;20031;-68
2022/07/30 08:41:54;;;;;;;7.05;3.03;;;26.40;60.90;;;;;;5117242;28;20027;-67
2022/07/30 08:44:21;;;;;;;5.00;2.70;;;26.70;61.60;;;;;;5117374;28;20160;-69
2022/07/30 08:46:50;;;;;;;8.65;3.30;;;27.00;61.60;;;;;;5117648;28;20054;-67
2022/07/30 08:49:18;;;;;;;7.85;3.30;;;27.30;60.00;;;;;;5115241;28;20042;-68
2022/07/30 08:51:44;;;;;;;9.00;2.83;;;27.30;61.10;;;;;;5116062;28;20107;-69
2022/07/30 08:54:10;;;;;;;6.40;2.80;;;28.10;59.20;;;;;;5117135;28;20514;-69
2022/07/30 08:56:36;;;;;;;4.85;2.55;;;27.90;59.60;;;;;;5117220;28;20077;-67
2022/07/30 08:59:02;;;;;;;6.82;2.95;;;27.00;61.20;;;;;;5115337;28;20024;-68
2022/07/30 09:01:28;;;;;;;6.25;3.00;;;26.40;63.30;;;;;;5117657;28;20024;-68
2022/07/30 09:03:53;;;;;;;8.88;2.78;;;25.80;63.90;;;;;;5113366;28;20031;-68
2022/07/30 09:06:19;;;;;;;6.70;3.40;;;26.40;64.10;;;;;;5112984;28;20039;-67
2022/07/30 09:08:45;;;;;;;7.88;3.40;;;26.50;62.50;;;;;;5116349;28;20110;-68
2022/07/30 09:11:11;;;;;;;8.40;3.60;;;25.50;63.80;;;;;;5114520;28;20033;-68
2022/07/30 09:13:40;;;;;;;4.68;2.67;;;25.10;65.70;;;;;;5117550;28;20030;-68
2022/07/30 09:16:06;;;;;;;8.05;3.30;;;25.90;64.10;;;;;;5113877;28;20023;-67
2022/07/30 09:18:43;;;;;;;8.93;3.05;;;27.10;61.50;;;;;;5111598;28;20031;-66
2022/07/30 09:21:25;;;;;;;6.40;2.60;;;27.60;60.90;;;;;;5116475;28;20032;-67
2022/07/30 09:24:02;;;;;;;7.75;2.80;;;28.00;60.00;;;;;;5117624;28;20012;-68
2022/07/30 09:26:29;;;;;;;8.32;2.47;;;27.20;59.50;;;;;;5111177;28;20037;-68
2022/07/30 09:29:13;;;;;;;9.38;2.63;;;25.80;63.20;;;;;;5114173;28;20107;-68
2022/07/30 09:32:04;;;;;;;7.38;2.70;;;26.60;61.80;;;;;;5115734;28;20073;-68
2022/07/30 09:34:32;;;;;;;4.70;2.30;;;27.90;58.80;;;;;;5115106;28;20027;-67
2022/07/30 09:37:04;;;;;;;5.60;2.15;;;28.50;56.20;;;;;;5114386;28;20404;-68
2022/07/30 09:39:36;;;;;;;6.28;2.13;;;28.10;58.70;;;;;;5113546;27;20028;-68
2022/07/30 09:42:17;;;;;;;6.93;2.30;;;28.60;56.90;;;;;;5116225;28;20470;-67
2022/07/30 09:44:43;;;;;;;4.68;2.17;;;28.20;57.40;;;;;;5114484;28;20344;-67
2022/07/30 09:47:08;;;;;;;8.05;2.65;;;28.10;58.20;;;;;;5114078;28;20107;-68
2022/07/30 09:49:36;;;;;;;6.82;2.63;;;28.20;57.80;;;;;;5114837;28;20028;-67
2022/07/30 09:52:01;;;;;;;8.45;2.33;;;27.40;58.00;;;;;;5114892;27;20055;-67
2022/07/30 09:54:47;;;;;;;5.75;2.10;;;27.20;58.60;;;;;;5115384;28;20047;-68
2022/07/30 09:57:13;;;;;;;5.28;1.80;;;27.90;57.90;;;;;;5114480;28;20035;-68
2022/07/30 09:59:39;;;;;;;6.47;1.90;;;28.40;56.60;;;;;;5115021;28;20035;-66
2022/07/30 10:02:04;;;;;;;8.43;2.35;;;29.20;56.40;;;;;;5116427;28;20431;-67
2022/07/30 10:04:32;;;;;;;7.13;2.30;;;28.80;56.10;;;;;;5114583;28;20101;-67
2022/07/30 10:06:59;;;;;;;4.85;2.10;;;29.20;56.90;;;;;;5114408;28;20110;-67
2022/07/30 10:09:33;;;;;;;6.72;2.40;;;29.30;55.30;;;;;;5116005;28;20126;-66
2022/07/30 10:12:02;;;;;;;5.65;2.05;;;27.50;57.10;;;;;;5105339;28;20419;-65
2022/07/30 10:14:34;;;;;;;4.60;1.70;;;27.90;58.50;;;;;;5102396;28;20032;-67
2022/07/30 10:17:02;;;;;;;9.35;1.90;;;28.20;56.70;;;;;;5099645;28;20325;-67
2022/07/30 10:19:28;;;;;;;4.93;1.98;;;29.20;55.90;;;;;;5102038;28;20051;-66
2022/07/30 10:21:57;;;;;;;5.93;2.10;;;29.70;55.00;;;;;;5100117;28;20024;-67
2022/07/30 10:24:24;;;;;;;6.93;1.98;;;29.70;54.50;;;;;;5112245;28;20028;-67
2022/07/30 10:26:51;;;;;;;5.20;1.95;;;28.70;55.20;;;;;;5108826;28;20473;-66
2022/07/30 10:29:18;;;;;;;6.38;1.83;;;28.60;56.70;;;;;;5114526;28;20055;-66
2022/07/30 10:31:45;;;;;;;4.75;1.83;;;29.50;54.40;;;;;;5102984;28;20024;-66
2022/07/30 10:34:12;;;;;;;4.40;1.75;;;29.50;52.90;;;;;;5094265;28;20020;-66
2022/07/30 10:36:48;;;;;;;6.07;1.70;;;29.70;52.50;;;;;;5110643;28;20024;-66
2022/07/30 10:39:24;;;;;;;5.53;1.70;;;29.40;52.20;;;;;;5113289;28;20028;-66
2022/07/30 10:42:00;;;;;;;5.35;2.35;;;29.70;53.50;;;;;;5102858;28;20317;-66
2022/07/30 10:45:03;;;;;;;6.47;2.00;;;29.90;52.90;;;;;;5096205;28;20652;-66
2022/07/30 10:47:31;;;;;;;6.93;1.50;;;29.30;53.90;;;;;;5100639;28;20036;-67
2022/07/30 10:50:19;;;;;;;6.70;1.73;;;29.40;53.00;;;;;;5105550;28;20050;-67
2022/07/30 10:52:51;;;;;;;4.18;1.65;;;29.60;52.50;;;;;;5101596;28;20085;-68
2022/07/30 10:55:22;;;;;;;4.43;1.67;;;29.70;52.80;;;;;;5099111;28;20028;-66
2022/07/30 10:58:11;;;;;;;8.60;2.40;;;29.30;52.90;;;;;;5099712;28;20047;-66
2022/07/30 11:00:52;;;;;;;6.43;1.73;;;28.20;54.90;;;;;;5107275;28;20635;-66
2022/07/30 11:03:24;;;;;;;4.55;1.65;;;28.30;56.00;;;;;;5109216;28;20020;-66
2022/07/30 11:06:10;;;;;;;6.35;1.60;;;28.70;54.10;;;;;;5113138;28;20057;-67
2022/07/30 11:08:37;;;;;;;6.30;2.15;;;29.20;53.70;;;;;;5096023;28;20483;-68
2022/07/30 11:11:23;;;;;;;6.82;2.08;;;29.40;52.90;;;;;;5100915;28;20031;-67
2022/07/30 11:13:56;;;;;;;3.47;1.73;;;28.40;54.80;;;;;;5108341;28;20039;-66
2022/07/30 11:16:44;;;;;;;5.38;1.80;;;27.80;55.70;;;;;;5104118;28;20344;-66
2022/07/30 11:19:15;;;;;;;6.47;1.65;;;27.80;56.50;;;;;;5115856;28;20034;-67
2022/07/30 11:21:42;;;;;;;4.97;1.88;;;27.70;56.10;;;;;;5114804;28;20016;-67
2022/07/30 11:24:46;;;;;;;4.93;1.95;;;27.30;56.00;;;;;;5114428;28;20033;-66
2022/07/30 11:27:33;;;;;;;8.48;2.28;;;26.60;57.30;;;;;;5114612;28;20371;-66
2022/07/30 11:30:01;;;;;;;4.55;1.70;;;27.30;58.00;;;;;;5110621;28;20106;-66
2022/07/30 11:32:31;;;;;;;4.97;1.70;;;28.30;54.70;;;;;;5119907;28;20027;-65
2022/07/30 11:35:16;;;;;;;4.90;1.90;;;28.70;53.80;;;;;;5117513;28;20114;-66
2022/07/30 11:38:03;;;;;;;3.90;1.80;;;28.50;52.60;;;;;;5118785;28;20420;-66
2022/07/30 11:40:45;;;;;;;4.50;1.83;;;27.30;55.60;;;;;;5118716;28;20041;-66
2022/07/30 11:43:28;;;;;;;6.53;2.10;;;26.40;56.70;;;;;;5107938;28;20122;-66
2022/07/30 11:46:05;;;;;;;;;;;26.00;58.00;;;;;;5102193;28;20023;-66
2022/07/30 11:48:32;;;;;;;4.90;2.17;;;25.80;58.50;;;;;;5109986;28;20249;-65
2022/07/30 11:50:59;;;;;;;5.53;1.70;;;25.80;58.20;;;;;;5109134;28;20073;-67
2022/07/30 11:53:24;;;;;;;5.75;1.70;;;26.80;57.80;;;;;;5109524;28;20024;-67
2022/07/30 11:55:54;;;;;;;5.40;1.70;;;27.90;54.80;;;;;;5114814;28;20057;-67
2022/07/30 11:58:31;;;;;;;4.18;1.70;;;28.90;53.80;;;;;;5117909;28;20030;-66
2022/07/30 12:01:03;;;;;;;5.07;1.92;;;29.50;53.20;;;;;;5112885;28;20020;-67
2022/07/30 12:03:33;;;;;;;6.82;1.60;;;29.60;52.40;;;;;;5117862;28;20032;-67
2022/07/30 12:06:06;;;;;;;4.57;1.63;;;29.20;53.70;;;;;;5117187;28;20035;-67
2022/07/30 12:08:42;;;;;;;4.90;1.77;;;28.80;52.70;;;;;;5116509;28;20032;-67
2022/07/30 12:11:09;;;;;;;5.05;1.60;;;29.00;53.30;;;;;;5115635;28;20081;-66
2022/07/30 12:13:36;;;;;;;6.10;1.80;;;29.40;52.10;;;;;;5117095;28;20126;-67
2022/07/30 12:16:08;;;;;;;5.05;1.83;;;29.40;52.10;;;;;;5110187;28;20028;-65
2022/07/30 12:18:34;;;;;;;4.25;1.70;;;28.70;52.60;;;;;;5107350;28;20024;-66
2022/07/30 12:21:07;;;;;;;4.43;1.67;;;28.10;54.40;;;;;;5112028;28;20072;-65
2022/07/30 12:23:36;;;;;;;5.53;1.70;;;27.80;54.00;;;;;;5099317;28;20431;-67
2022/07/30 12:26:04;;;;;;;3.70;1.48;;;28.30;54.60;;;;;;5108178;28;20032;-66
2022/07/30 12:28:32;;;;;;;4.97;1.80;;;28.70;53.80;;;;;;5110730;28;20328;-65
2022/07/30 12:31:01;;;;;;;4.80;1.40;;;29.00;53.40;;;;;;5111164;28;20024;-66
2022/07/30 12:33:26;;;;;;;4.20;1.60;;;29.40;52.40;;;;;;5115907;28;20046;-67
2022/07/30 12:35:54;;;;;;;5.00;1.70;;;29.00;53.20;;;;;;5115220;28;20019;-67
2022/07/30 12:38:21;;;;;;;3.90;1.40;;;28.70;53.10;;;;;;5112977;28;20024;-65
2022/07/30 12:40:57;;;;;;;6.22;1.70;;;28.60;54.10;;;;;;5110435;28;20028;-66
2022/07/30 12:43:52;;;;;;;3.95;1.58;;;28.60;53.50;;;;;;5110620;28;20412;-66
2022/07/30 12:46:26;;;;;;;4.50;1.65;;;27.90;54.30;;;;;;5113446;28;20028;-65
2022/07/30 12:49:01;;;;;;;4.55;1.50;;;27.40;55.30;;;;;;5116365;28;20374;-66
2022/07/30 12:51:31;;;;;;;4.90;1.40;;;27.90;55.60;;;;;;5117686;28;20023;-67
2022/07/30 12:53:58;;;;;;;3.40;1.80;;;27.70;53.40;;;;;;5117912;28;20031;-66
2022/07/30 12:56:27;;;;;;;4.85;1.67;;;28.30;54.90;;;;;;5112278;28;20122;-66